createdAt,value
2023-11-18T00:02:16.549Z,5.40
2023-11-18T00:04:43.497Z,5.30
2023-11-18T00:07:10.510Z,5.40
2023-11-18T00:09:37.937Z,5.40
2023-11-18T00:12:05.542Z,5.50
2023-11-18T00:14:32.320Z,5.50
2023-11-18T00:17:00.347Z,5.60
2023-11-18T00:19:27.724Z,5.50
2023-11-18T00:21:54.740Z,5.60
2023-11-18T00:24:22.285Z,5.60
2023-11-18T00:26:49.130Z,5.70
2023-11-18T00:29:15.987Z,5.70
2023-11-18T00:31:43.006Z,5.80
2023-11-18T00:34:12.063Z,5.90
2023-11-18T00:36:38.930Z,6.10
2023-11-18T00:39:05.835Z,6.10
2023-11-18T00:41:33.306Z,6.10
2023-11-18T00:44:01.627Z,6.10
2023-11-18T00:46:28.691Z,6.20
2023-11-18T00:48:55.689Z,6.20
2023-11-18T00:51:22.567Z,6.30
2023-11-18T00:53:49.470Z,6.30
2023-11-18T00:56:19.469Z,6.30
2023-11-18T00:58:46.489Z,6.40
2023-11-18T01:01:13.377Z,6.40
2023-11-18T01:03:40.278Z,6.40
2023-11-18T01:06:07.331Z,6.40
2023-11-18T01:08:34.248Z,6.40
2023-11-18T01:11:01.361Z,6.30
2023-11-18T01:13:28.353Z,6.30
2023-11-18T01:15:55.245Z,6.30
2023-11-18T01:18:22.280Z,6.30
2023-11-18T01:20:49.259Z,6.20
2023-11-18T01:23:16.490Z,6.20
2023-11-18T01:25:43.917Z,6.30
2023-11-18T01:28:10.939Z,6.20
2023-11-18T01:30:38.928Z,6.20
2023-11-18T01:33:06.049Z,6.20
2023-11-18T01:35:32.923Z,6.20
2023-11-18T01:37:59.933Z,6.20
2023-11-18T01:40:27.097Z,6.30
2023-11-18T01:42:53.931Z,6.40
2023-11-18T01:45:20.898Z,6.30
2023-11-18T01:47:51.556Z,6.20
2023-11-18T01:50:19.641Z,6.20
2023-11-18T01:52:48.522Z,6.30
2023-11-18T01:55:15.610Z,6.30
2023-11-18T01:57:45.218Z,6.30
2023-11-18T02:00:14.103Z,6.40
2023-11-18T02:02:42.665Z,6.30
2023-11-18T02:05:09.842Z,6.30
2023-11-18T02:07:38.405Z,6.30
2023-11-18T02:10:10.441Z,6.40
2023-11-18T02:12:43.273Z,6.40
2023-11-18T02:15:13.913Z,6.40
2023-11-18T02:17:44.719Z,6.40
2023-11-18T02:20:22.177Z,6.40
2023-11-18T02:22:49.258Z,6.40
2023-11-18T02:25:19.802Z,6.40
2023-11-18T02:27:47.558Z,6.40
2023-11-18T02:30:18.698Z,6.40
2023-11-18T02:32:54.872Z,6.50
2023-11-18T02:35:31.181Z,6.50
2023-11-18T02:38:01.659Z,6.40
2023-11-18T02:40:36.937Z,6.40
2023-11-18T02:43:06.581Z,6.40
2023-11-18T02:45:37.216Z,6.40
2023-11-18T02:48:07.431Z,6.40
2023-11-18T02:50:36.532Z,6.40
2023-11-18T02:53:03.964Z,6.40
2023-11-18T02:55:30.873Z,6.40
2023-11-18T02:57:58.245Z,6.40
2023-11-18T03:00:25.337Z,6.40
2023-11-18T03:02:53.287Z,6.30
2023-11-18T03:05:22.251Z,6.30
2023-11-18T03:07:54.718Z,6.30
2023-11-18T03:10:22.778Z,6.30
2023-11-18T03:12:51.784Z,6.30
2023-11-18T03:15:19.413Z,6.30
2023-11-18T03:17:49.499Z,6.30
2023-11-18T03:20:18.202Z,6.30
2023-11-18T03:22:47.371Z,6.40
2023-11-18T03:25:15.061Z,6.40
2023-11-18T03:27:42.247Z,6.40
2023-11-18T03:30:10.460Z,6.40
2023-11-18T03:32:40.921Z,6.40
2023-11-18T03:35:12.608Z,6.40
2023-11-18T03:37:44.957Z,6.40
2023-11-18T03:40:15.557Z,6.50
2023-11-18T03:42:43.402Z,6.50
2023-11-18T03:45:11.437Z,6.50
2023-11-18T03:47:38.887Z,6.50
2023-11-18T03:50:06.752Z,6.50
2023-11-18T03:52:35.707Z,6.40
2023-11-18T03:55:05.641Z,6.50
2023-11-18T03:57:33.521Z,6.50
2023-11-18T04:00:00.425Z,6.50
2023-11-18T04:02:27.515Z,6.50
2023-11-18T04:04:54.482Z,6.50
2023-11-18T04:07:22.878Z,6.50
2023-11-18T04:09:49.729Z,6.50
2023-11-18T04:12:17.356Z,6.50
2023-11-18T04:14:44.195Z,6.50
2023-11-18T04:17:11.157Z,6.50
2023-11-18T04:19:40.146Z,6.50
2023-11-18T04:22:07.240Z,6.50
2023-11-18T04:24:36.053Z,6.60
2023-11-18T04:27:03.415Z,6.50
2023-11-18T04:29:31.077Z,6.60
2023-11-18T04:31:58.074Z,6.60
2023-11-18T04:34:25.907Z,6.60
2023-11-18T04:36:52.748Z,6.60
2023-11-18T04:39:20.435Z,6.60
2023-11-18T04:41:48.097Z,6.60
2023-11-18T04:44:15.198Z,6.60
2023-11-18T04:46:42.010Z,6.60
2023-11-18T04:49:08.962Z,6.60
2023-11-18T04:51:36.528Z,6.60
2023-11-18T04:54:04.541Z,6.60
2023-11-18T04:56:31.535Z,6.70
2023-11-18T04:58:58.391Z,6.70
2023-11-18T05:01:25.223Z,6.80
2023-11-18T05:03:52.502Z,6.80
2023-11-18T05:06:21.245Z,6.70
2023-11-18T05:08:48.158Z,6.80
2023-11-18T05:11:15.156Z,6.80
2023-11-18T05:13:42.476Z,6.80
2023-11-18T05:16:11.650Z,6.80
2023-11-18T05:18:39.931Z,6.80
2023-11-18T05:21:07.942Z,6.80
2023-11-18T05:23:37.681Z,6.80
2023-11-18T05:26:07.990Z,6.80
2023-11-18T05:28:35.365Z,6.80
2023-11-18T05:31:03.625Z,6.80
2023-11-18T05:33:31.278Z,6.80
2023-11-18T05:35:58.323Z,6.80
2023-11-18T05:38:29.986Z,6.80
2023-11-18T05:40:57.983Z,6.80
2023-11-18T05:43:30.573Z,6.80
2023-11-18T05:46:19.410Z,6.80
2023-11-18T05:48:46.541Z,6.80
2023-11-18T05:51:13.984Z,6.80
2023-11-18T05:53:48.043Z,6.80
2023-11-18T05:56:17.820Z,6.80
2023-11-18T05:58:45.061Z,6.80
2023-11-18T06:01:17.719Z,6.80
2023-11-18T06:03:46.850Z,6.80
2023-11-18T06:06:20.004Z,6.80
2023-11-18T06:08:49.844Z,6.80
2023-11-18T06:11:17.696Z,6.80
2023-11-18T06:13:53.342Z,6.90
2023-11-18T06:16:23.254Z,6.90
2023-11-18T06:18:56.068Z,6.90
2023-11-18T06:21:26.285Z,6.90
2023-11-18T06:23:55.840Z,6.90
2023-11-18T06:26:22.862Z,6.90
2023-11-18T06:28:52.839Z,6.90
2023-11-18T06:31:21.340Z,6.90
2023-11-18T06:33:50.301Z,6.90
2023-11-18T06:36:18.023Z,6.90
2023-11-18T06:38:47.084Z,6.90
2023-11-18T06:41:16.358Z,6.90
2023-11-18T06:43:55.250Z,6.90
2023-11-18T06:46:35.876Z,6.90
2023-11-18T06:49:08.429Z,7.00
2023-11-18T06:51:37.571Z,7.00
2023-11-18T06:54:12.184Z,6.90
2023-11-18T06:56:45.172Z,7.00
2023-11-18T06:59:15.884Z,6.90
2023-11-18T07:01:45.098Z,6.90
2023-11-18T07:04:12.541Z,6.90
2023-11-18T07:06:39.400Z,6.90
2023-11-18T07:09:15.383Z,7.00
2023-11-18T07:11:42.485Z,6.90
2023-11-18T07:14:11.693Z,6.90
2023-11-18T07:16:42.972Z,6.90
2023-11-18T07:19:20.731Z,7.00
2023-11-18T07:21:50.206Z,7.00
2023-11-18T07:24:18.083Z,7.00
2023-11-18T07:26:46.354Z,7.00
2023-11-18T07:29:13.336Z,7.00
2023-11-18T07:31:40.342Z,7.00
2023-11-18T07:34:07.336Z,7.00
2023-11-18T07:36:34.445Z,7.00
2023-11-18T07:39:03.734Z,7.00
2023-11-18T07:41:33.792Z,7.00
2023-11-18T07:44:01.805Z,7.00
2023-11-18T07:46:31.508Z,7.00
2023-11-18T07:48:58.813Z,7.10
2023-11-18T07:51:26.088Z,7.00
2023-11-18T07:53:56.439Z,7.00
2023-11-18T07:56:24.397Z,7.10
2023-11-18T07:58:53.014Z,7.20
2023-11-18T08:01:22.325Z,7.10
2023-11-18T08:03:49.545Z,7.10
2023-11-18T08:06:16.600Z,7.10
2023-11-18T08:08:43.470Z,7.10
2023-11-18T08:11:13.834Z,7.10
2023-11-18T08:13:41.253Z,7.00
2023-11-18T08:16:09.668Z,7.00
2023-11-18T08:18:36.833Z,7.10
2023-11-18T08:21:06.163Z,7.10
2023-11-18T08:23:33.006Z,7.10
2023-11-18T08:26:00.108Z,7.10
2023-11-18T08:28:27.137Z,7.10
2023-11-18T08:30:54.362Z,7.10
2023-11-18T08:33:25.511Z,7.20
2023-11-18T08:35:53.002Z,7.20
2023-11-18T08:38:20.833Z,7.20
2023-11-18T08:40:49.717Z,7.20
2023-11-18T08:43:17.628Z,7.20
2023-11-18T08:45:44.881Z,7.20
2023-11-18T08:48:12.081Z,7.20
2023-11-18T08:50:44.239Z,7.20
2023-11-18T08:53:13.027Z,7.20
2023-11-18T08:55:41.654Z,7.30
2023-11-18T08:58:23.335Z,7.30
2023-11-18T09:00:53.737Z,7.30
2023-11-18T09:03:26.703Z,7.40
2023-11-18T09:05:59.515Z,7.40
2023-11-18T09:08:39.774Z,7.30
2023-11-18T09:11:15.769Z,7.30
2023-11-18T09:13:54.813Z,7.30
2023-11-18T09:16:30.375Z,7.30
2023-11-18T09:19:00.429Z,7.30
2023-11-18T09:21:30.591Z,7.30
2023-11-18T09:23:57.869Z,7.30
2023-11-18T09:26:26.869Z,7.30
2023-11-18T09:28:54.138Z,7.30
2023-11-18T09:31:22.164Z,7.30
2023-11-18T09:33:53.197Z,7.30
2023-11-18T09:36:21.410Z,7.30
2023-11-18T09:38:49.433Z,7.30
2023-11-18T09:41:17.675Z,7.30
2023-11-18T09:43:47.236Z,7.30
2023-11-18T09:46:17.385Z,7.30
2023-11-18T09:49:01.344Z,7.30
2023-11-18T09:51:39.862Z,7.30
2023-11-18T09:54:52.249Z,7.30
2023-11-18T09:57:34.585Z,7.40
2023-11-18T10:00:22.749Z,7.40
2023-11-18T10:02:53.861Z,7.40
2023-11-18T10:05:23.449Z,7.50
2023-11-18T10:07:51.289Z,7.50
2023-11-18T10:10:21.536Z,7.50
2023-11-18T10:12:54.167Z,7.50
2023-11-18T10:15:24.744Z,7.50
2023-11-18T10:18:09.633Z,7.60
2023-11-18T10:20:52.992Z,7.60
2023-11-18T10:23:22.974Z,7.60
2023-11-18T10:25:57.809Z,7.60
2023-11-18T10:28:34.259Z,7.60
2023-11-18T10:31:06.693Z,7.60
2023-11-18T10:33:42.558Z,7.70
2023-11-18T10:36:24.122Z,7.70
2023-11-18T10:38:56.559Z,7.70
2023-11-18T10:41:26.713Z,7.70
2023-11-18T10:44:14.877Z,7.70
2023-11-18T10:47:03.049Z,7.80
2023-11-18T10:49:37.743Z,7.80
2023-11-18T10:52:09.213Z,7.80
2023-11-18T10:54:36.279Z,7.80
2023-11-18T10:57:08.853Z,7.80
2023-11-18T10:59:37.787Z,7.80
2023-11-18T11:02:22.804Z,7.80
2023-11-18T11:04:50.174Z,7.80
2023-11-18T11:07:21.056Z,7.90
2023-11-18T11:09:47.925Z,7.90
2023-11-18T11:12:18.011Z,7.80
2023-11-18T11:15:00.689Z,7.90
2023-11-18T11:17:35.737Z,7.90
2023-11-18T11:20:19.339Z,7.80
2023-11-18T11:23:29.454Z,7.90
2023-11-18T11:26:14.853Z,7.90
2023-11-18T11:28:54.694Z,7.90
2023-11-18T11:31:37.346Z,7.80
2023-11-18T11:34:26.612Z,7.90
2023-11-18T11:36:56.579Z,7.90
2023-11-18T11:39:27.185Z,8.00
2023-11-18T11:41:57.376Z,8.00
2023-11-18T11:44:31.548Z,8.00
2023-11-18T11:47:01.899Z,8.10
2023-11-18T11:49:48.620Z,8.10
2023-11-18T11:52:29.374Z,8.10
2023-11-18T11:55:14.473Z,8.10
2023-11-18T11:57:43.954Z,8.10
2023-11-18T12:00:18.378Z,8.10
2023-11-18T12:02:55.992Z,8.20
2023-11-18T12:05:28.399Z,8.20
2023-11-18T12:07:57.446Z,8.20
2023-11-18T12:10:33.802Z,8.30
2023-11-18T12:13:21.154Z,8.30
2023-11-18T12:16:04.890Z,8.40
2023-11-18T12:18:37.755Z,8.30
2023-11-18T12:21:05.820Z,8.30
2023-11-18T12:23:35.862Z,8.30
2023-11-18T12:26:04.111Z,8.30
2023-11-18T12:28:36.260Z,8.30
2023-11-18T12:31:17.839Z,8.30
2023-11-18T12:33:57.994Z,8.30
2023-11-18T12:36:31.411Z,8.30
2023-11-18T12:39:42.040Z,8.40
2023-11-18T12:42:20.831Z,8.40
2023-11-18T12:45:25.740Z,8.40
2023-11-18T12:47:59.306Z,8.50
2023-11-18T12:50:29.687Z,8.40
2023-11-18T12:52:58.580Z,8.30
2023-11-18T12:55:27.570Z,8.30
2023-11-18T12:57:55.250Z,8.40
2023-11-18T13:00:28.927Z,8.40
2023-11-18T13:02:56.315Z,8.50
2023-11-18T13:05:23.464Z,8.50
2023-11-18T13:07:51.217Z,8.50
2023-11-18T13:10:18.388Z,8.50
2023-11-18T13:12:46.808Z,8.50
2023-11-18T13:15:13.891Z,8.50
2023-11-18T13:17:41.887Z,8.50
2023-11-18T13:20:16.174Z,8.50
2023-11-18T13:22:48.119Z,8.60
2023-11-18T13:25:18.296Z,8.60
2023-11-18T13:27:45.551Z,8.60
2023-11-18T13:30:14.786Z,8.50
2023-11-18T13:32:43.837Z,8.60
2023-11-18T13:35:15.301Z,8.60
2023-11-18T13:37:42.879Z,8.60
2023-11-18T13:40:10.950Z,8.60
2023-11-18T13:42:40.135Z,8.60
2023-11-18T13:45:24.033Z,8.60
2023-11-18T13:48:00.672Z,8.70
2023-11-18T13:50:28.066Z,8.60
2023-11-18T13:52:55.355Z,8.60
2023-11-18T13:55:28.878Z,8.60
2023-11-18T13:57:58.611Z,8.60
2023-11-18T14:00:32.298Z,8.70
2023-11-18T14:03:01.404Z,8.70
2023-11-18T14:05:28.550Z,8.70
2023-11-18T14:08:09.676Z,8.70
2023-11-18T14:10:41.876Z,8.70
2023-11-18T14:13:13.445Z,8.70
2023-11-18T14:15:43.519Z,8.70
2023-11-18T14:18:10.423Z,8.70
2023-11-18T14:20:38.321Z,8.80
2023-11-18T14:23:05.370Z,8.80
2023-11-18T14:25:33.304Z,8.80
2023-11-18T14:28:00.636Z,8.70
2023-11-18T14:30:27.528Z,8.80
2023-11-18T14:32:54.774Z,8.70
2023-11-18T14:35:22.100Z,8.80
2023-11-18T14:37:49.411Z,8.80
2023-11-18T14:40:17.338Z,8.80
2023-11-18T14:42:47.482Z,8.80
2023-11-18T14:45:16.015Z,8.80
2023-11-18T14:47:46.359Z,8.80
2023-11-18T14:50:19.349Z,8.80
2023-11-18T14:53:01.294Z,8.80
2023-11-18T14:55:30.859Z,8.90
2023-11-18T14:57:58.216Z,8.90
2023-11-18T15:00:27.931Z,8.90
2023-11-18T15:02:58.255Z,8.90
2023-11-18T15:05:28.492Z,8.90
2023-11-18T15:07:59.494Z,8.90
2023-11-18T15:10:28.659Z,8.90
2023-11-18T15:13:01.766Z,9.00
2023-11-18T15:15:33.358Z,9.00
2023-11-18T15:18:08.275Z,9.00
2023-11-18T15:20:36.771Z,9.00
2023-11-18T15:23:05.648Z,9.00
2023-11-18T15:25:32.782Z,9.00
2023-11-18T15:28:00.272Z,9.00
2023-11-18T15:30:28.241Z,9.00
2023-11-18T15:32:55.620Z,9.00
2023-11-18T15:35:23.173Z,9.10
2023-11-18T15:37:51.230Z,9.00
2023-11-18T15:40:22.399Z,9.00
2023-11-18T15:42:49.961Z,9.10
2023-11-18T15:45:22.328Z,9.00
2023-11-18T15:47:49.954Z,9.10
2023-11-18T15:50:17.984Z,9.10
2023-11-18T15:52:54.921Z,9.10
2023-11-18T15:55:22.768Z,9.10
2023-11-18T15:57:53.884Z,9.10
2023-11-18T16:00:25.842Z,9.10
2023-11-18T16:02:59.559Z,9.10
2023-11-18T16:05:29.373Z,9.10
2023-11-18T16:07:56.995Z,9.20
2023-11-18T16:10:25.878Z,9.30
2023-11-18T16:13:01.666Z,9.20
2023-11-18T16:15:31.656Z,9.20
2023-11-18T16:18:01.388Z,9.20
2023-11-18T16:20:35.393Z,9.30
2023-11-18T16:23:04.113Z,9.30
2023-11-18T16:25:31.814Z,9.20
2023-11-18T16:28:01.126Z,9.30
2023-11-18T16:30:31.161Z,9.30
2023-11-18T16:33:00.303Z,9.30
2023-11-18T16:35:27.840Z,9.40
2023-11-18T16:37:55.626Z,9.40
2023-11-18T16:40:24.744Z,9.40
2023-11-18T16:42:56.262Z,9.40
2023-11-18T16:45:25.013Z,9.40
2023-11-18T16:47:53.570Z,9.50
2023-11-18T16:50:24.168Z,9.40
2023-11-18T16:52:52.089Z,9.50
2023-11-18T16:55:19.609Z,9.50
2023-11-18T16:57:48.346Z,9.60
2023-11-18T17:00:17.035Z,9.50
2023-11-18T17:02:55.366Z,9.60
2023-11-18T17:05:23.849Z,9.60
2023-11-18T17:07:51.776Z,9.60
2023-11-18T17:10:18.640Z,9.60
2023-11-18T17:12:47.359Z,9.60
2023-11-18T17:15:16.421Z,9.70
2023-11-18T17:17:45.935Z,9.60
2023-11-18T17:20:15.591Z,9.70
2023-11-18T17:22:43.889Z,9.70
2023-11-18T17:25:19.095Z,9.70
2023-11-18T17:27:47.644Z,9.70
2023-11-18T17:30:18.855Z,9.80
2023-11-18T17:32:48.294Z,9.70
2023-11-18T17:35:17.872Z,9.80
2023-11-18T17:37:47.274Z,9.90
2023-11-18T17:40:17.641Z,9.90
2023-11-18T17:42:46.197Z,9.90
2023-11-18T17:45:15.496Z,10.00
2023-11-18T17:47:44.589Z,10.00
2023-11-18T17:50:16.325Z,10.10
2023-11-18T17:52:47.338Z,10.10
2023-11-18T17:55:14.493Z,10.10
2023-11-18T17:57:42.162Z,10.10
2023-11-18T18:00:13.822Z,10.20
2023-11-18T18:02:43.002Z,10.20
2023-11-18T18:05:13.544Z,10.20
2023-11-18T18:07:42.141Z,10.20
2023-11-18T18:10:11.243Z,10.30
2023-11-18T18:12:39.056Z,10.40
2023-11-18T18:15:09.881Z,10.30
2023-11-18T18:17:38.451Z,10.40
2023-11-18T18:20:15.392Z,10.40
2023-11-18T18:22:48.897Z,10.50
2023-11-18T18:25:15.965Z,10.50
2023-11-18T18:27:44.304Z,10.60
2023-11-18T18:30:11.788Z,10.70
2023-11-18T18:32:38.720Z,10.70
2023-11-18T18:35:06.997Z,10.80
2023-11-18T18:37:34.643Z,10.80
2023-11-18T18:40:02.229Z,10.90
2023-11-18T18:42:29.074Z,10.80
2023-11-18T18:44:56.177Z,10.90
2023-11-18T18:47:24.621Z,10.90
2023-11-18T18:49:53.568Z,11.00
2023-11-18T18:52:20.669Z,11.00
2023-11-18T18:54:47.854Z,11.10
2023-11-18T18:57:14.868Z,11.10
2023-11-18T18:59:43.687Z,11.10
2023-11-18T19:02:11.017Z,11.20
2023-11-18T19:04:38.304Z,11.20
2023-11-18T19:07:05.375Z,11.20
2023-11-18T19:09:32.237Z,11.30
2023-11-18T19:11:59.023Z,11.40
2023-11-18T19:14:27.098Z,11.40
2023-11-18T19:16:54.102Z,11.40
2023-11-18T19:19:21.005Z,11.50
2023-11-18T19:21:52.422Z,11.50
2023-11-18T19:24:20.694Z,11.50
2023-11-18T19:26:48.846Z,11.60
2023-11-18T19:29:16.155Z,11.60
2023-11-18T19:31:43.509Z,11.60
2023-11-18T19:34:11.330Z,11.60
2023-11-18T19:36:38.377Z,11.60
2023-11-18T19:39:05.249Z,11.70
2023-11-18T19:41:32.148Z,11.70
2023-11-18T19:43:59.624Z,11.70
2023-11-18T19:46:26.805Z,11.70
2023-11-18T19:48:53.894Z,11.80
2023-11-18T19:51:20.874Z,11.80
2023-11-18T19:53:48.114Z,11.80
2023-11-18T19:56:15.968Z,11.80
2023-11-18T19:58:42.832Z,11.80
2023-11-18T20:01:18.072Z,11.90
2023-11-18T20:03:45.844Z,11.90
2023-11-18T20:06:14.337Z,11.90
2023-11-18T20:08:41.857Z,11.90
2023-11-18T20:11:10.517Z,12.00
2023-11-18T20:13:38.595Z,12.00
2023-11-18T20:16:08.396Z,12.00
2023-11-18T20:18:35.767Z,12.00
2023-11-18T20:21:02.749Z,12.00
2023-11-18T20:23:29.658Z,12.00
2023-11-18T20:25:57.246Z,12.00
2023-11-18T20:28:24.146Z,12.10
2023-11-18T20:30:51.028Z,12.10
2023-11-18T20:33:17.967Z,12.10
2023-11-18T20:35:46.318Z,12.10
2023-11-18T20:38:13.256Z,12.10
2023-11-18T20:40:40.603Z,12.10
2023-11-18T20:43:09.035Z,12.10
2023-11-18T20:45:38.338Z,12.20
2023-11-18T20:48:08.717Z,12.20
2023-11-18T20:50:36.872Z,12.20
2023-11-18T20:53:04.541Z,12.30
2023-11-18T20:55:31.517Z,12.20
2023-11-18T20:57:59.040Z,12.20
2023-11-18T21:00:26.526Z,12.30
2023-11-18T21:02:53.491Z,12.30
2023-11-18T21:05:22.198Z,12.40
2023-11-18T21:07:49.267Z,12.40
2023-11-18T21:10:17.275Z,12.40
2023-11-18T21:12:45.048Z,12.40
2023-11-18T21:15:13.567Z,12.40
2023-11-18T21:17:41.593Z,12.40
2023-11-18T21:20:16.738Z,12.40
2023-11-18T21:22:44.680Z,12.40
2023-11-18T21:25:12.741Z,12.50
2023-11-18T21:27:39.872Z,12.50
2023-11-18T21:30:11.299Z,12.50
2023-11-18T21:32:43.065Z,12.50
2023-11-18T21:35:15.636Z,12.50
2023-11-18T21:37:42.811Z,12.60
2023-11-18T21:40:12.999Z,12.50
2023-11-18T21:42:41.499Z,12.50
2023-11-18T21:45:09.400Z,12.50
2023-11-18T21:47:36.424Z,12.50
2023-11-18T21:50:06.575Z,12.60
2023-11-18T21:52:33.482Z,12.50
2023-11-18T21:55:00.389Z,12.50
2023-11-18T21:57:28.060Z,12.60
2023-11-18T21:59:55.076Z,12.60
2023-11-18T22:02:23.467Z,12.60
2023-11-18T22:04:50.398Z,12.60
2023-11-18T22:07:18.859Z,12.70
2023-11-18T22:09:47.993Z,12.80
2023-11-18T22:12:15.151Z,12.60
2023-11-18T22:14:42.929Z,12.60
2023-11-18T22:17:09.844Z,12.60
2023-11-18T22:19:36.924Z,12.70
2023-11-18T22:22:04.270Z,12.70
2023-11-18T22:24:31.109Z,12.70
2023-11-18T22:26:57.909Z,12.80
2023-11-18T22:29:24.721Z,12.80
2023-11-18T22:31:51.734Z,12.80
2023-11-18T22:34:18.616Z,12.80
2023-11-18T22:36:46.119Z,12.80
2023-11-18T22:39:13.489Z,12.80
2023-11-18T22:41:41.636Z,12.80
2023-11-18T22:44:08.889Z,12.90
2023-11-18T22:46:36.508Z,12.80
2023-11-18T22:49:04.305Z,12.80
2023-11-18T22:51:31.394Z,12.90
2023-11-18T22:54:01.214Z,12.90
2023-11-18T22:56:28.092Z,12.90
2023-11-18T22:58:55.032Z,12.90
2023-11-18T23:01:24.247Z,13.00
2023-11-18T23:03:52.083Z,12.90
2023-11-18T23:06:22.588Z,12.90
2023-11-18T23:08:50.117Z,13.00
2023-11-18T23:11:18.730Z,12.90
2023-11-18T23:13:47.699Z,13.00
2023-11-18T23:16:14.597Z,13.00
2023-11-18T23:18:42.543Z,13.00
2023-11-18T23:21:11.632Z,12.90
2023-11-18T23:23:38.692Z,13.10
2023-11-18T23:26:06.937Z,13.00
2023-11-18T23:28:34.846Z,13.10
2023-11-18T23:31:05.948Z,13.00
2023-11-18T23:33:33.096Z,13.00
2023-11-18T23:35:59.968Z,13.00
2023-11-18T23:38:30.863Z,13.00
2023-11-18T23:40:57.848Z,13.10
2023-11-18T23:43:24.812Z,13.00
2023-11-18T23:45:51.721Z,13.10
2023-11-18T23:48:18.598Z,13.10
2023-11-18T23:50:45.389Z,13.10
2023-11-18T23:53:12.490Z,13.10
2023-11-18T23:55:39.378Z,13.10
2023-11-18T23:58:06.323Z,13.10
